Time;durP1;ratioP1;P1;durP2;ratioP2;P2;SDS_P1;SDS_P2;PMS_P1;PMS_P2;Temp;Humidity;BMP_temperature;BMP_pressure;BME280_temperature;BME280_humidity;BME280_pressure;Samples;Min_cycle;Max_cycle;Signal;HPM_P1;HPM_P2
2022/01/06 00:02:16;;;;;;;22.48;3.35;;;1.60;99.90;;;;;;5075475;28;20020;-75
2022/01/06 00:04:42;;;;;;;30.85;4.38;;;1.60;99.90;;;;;;5075419;28;20031;-75
2022/01/06 00:07:07;;;;;;;28.48;3.15;;;1.60;99.90;;;;;;5075443;28;20103;-75
2022/01/06 00:09:33;;;;;;;28.98;3.83;;;1.50;99.90;;;;;;5079508;28;20101;-74
2022/01/06 00:11:59;;;;;;;27.83;3.67;;;1.40;99.90;;;;;;5095689;28;20034;-75
2022/01/06 00:14:41;;;;;;;25.17;3.63;;;1.40;99.90;;;;;;5094819;28;20044;-75
2022/01/06 00:17:24;;;;;;;20.08;3.58;;;1.30;99.90;;;;;;5095605;28;20047;-75
2022/01/06 00:25:18;;;;;;;21.88;3.08;;;1.20;99.90;;;;;;5095224;28;20039;-75
2022/01/06 00:27:43;;;;;;;24.52;3.15;;;1.10;99.90;;;;;;5095252;28;20028;-75
2022/01/06 00:30:09;;;;;;;23.38;3.60;;;1.10;99.90;;;;;;5095107;28;20095;-75
2022/01/06 00:32:35;;;;;;;25.00;3.30;;;1.10;99.90;;;;;;5095288;28;20024;-75
2022/01/06 00:35:01;;;;;;;15.70;3.22;;;1.00;99.90;;;;;;5095055;28;20046;-75
2022/01/06 00:37:27;;;;;;;15.55;2.63;;;1.00;99.90;;;;;;5095194;28;20024;-75
2022/01/06 00:39:52;;;;;;;25.00;3.10;;;1.00;99.90;;;;;;5093867;28;20466;-75
2022/01/06 00:42:18;;;;;;;33.05;3.47;;;1.00;99.90;;;;;;5093865;28;20035;-75
2022/01/06 00:44:43;;;;;;;23.48;3.28;;;1.00;99.90;;;;;;5093633;28;20355;-75
2022/01/06 00:47:09;;;;;;;22.33;3.58;;;1.00;99.90;;;;;;5093861;28;20047;-75
2022/01/06 00:49:35;;;;;;;28.05;4.03;;;0.90;99.90;;;;;;5093785;28;20024;-75
2022/01/06 00:52:00;;;;;;;22.30;3.83;;;0.90;99.90;;;;;;5093820;28;20024;-75
2022/01/06 00:54:26;;;;;;;23.45;4.15;;;0.90;99.90;;;;;;5093676;28;20113;-75
2022/01/06 00:56:52;;;;;;;20.33;3.42;;;0.90;99.90;;;;;;5094172;28;20028;-75
2022/01/06 00:59:17;;;;;;;25.90;3.10;;;0.80;99.90;;;;;;5094834;28;20070;-75
2022/01/06 01:01:43;;;;;;;20.95;2.95;;;0.80;99.90;;;;;;5093478;28;20068;-75
2022/01/06 01:04:08;;;;;;;20.85;4.18;;;0.80;99.90;;;;;;5094455;28;20032;-75
2022/01/06 01:06:34;;;;;;;25.98;3.92;;;0.80;99.90;;;;;;5094507;28;20024;-75
2022/01/06 01:09:00;;;;;;;22.10;2.80;;;0.80;99.90;;;;;;5094335;28;20047;-75
2022/01/06 01:11:25;;;;;;;29.90;3.40;;;0.70;99.90;;;;;;5094180;28;20479;-75
2022/01/06 01:13:55;;;;;;;26.85;4.25;;;0.70;99.90;;;;;;5094175;28;20482;-75
2022/01/06 01:16:29;;;;;;;19.55;3.17;;;0.70;99.90;;;;;;5094383;28;20638;-75
2022/01/06 01:18:56;;;;;;;21.80;3.90;;;0.70;99.90;;;;;;5094245;28;20069;-75
2022/01/06 01:21:26;;;;;;;21.95;3.25;;;0.70;99.90;;;;;;5094193;28;20059;-75
2022/01/06 01:23:57;;;;;;;20.98;3.45;;;0.70;99.90;;;;;;5094191;28;20028;-74
2022/01/06 01:26:23;;;;;;;19.23;3.45;;;0.80;99.90;;;;;;5075764;28;20682;-75
2022/01/06 01:28:51;;;;;;;23.77;3.30;;;0.80;99.90;;;;;;5093999;28;20028;-75
2022/01/06 01:33:46;;;;;;;22.23;3.55;;;0.70;99.90;;;;;;5094062;28;20099;-75
2022/01/06 01:36:12;;;;;;;23.42;3.08;;;0.70;99.90;;;;;;5093992;28;20073;-74
2022/01/06 01:38:39;;;;;;;33.53;3.60;;;0.70;99.90;;;;;;5093519;28;20056;-74
2022/01/06 01:41:05;;;;;;;24.52;3.58;;;0.60;99.90;;;;;;5093898;28;20350;-74
2022/01/06 01:43:32;;;;;;;32.47;3.60;;;0.70;99.90;;;;;;5093856;28;20028;-74
2022/01/06 01:45:59;;;;;;;25.88;4.40;;;0.70;99.90;;;;;;5093852;28;20020;-75
2022/01/06 01:48:33;;;;;;;19.98;2.70;;;0.60;99.90;;;;;;5093776;28;20134;-75
2022/01/06 01:50:59;;;;;;;25.15;3.53;;;0.60;99.90;;;;;;5093736;28;20028;-75
2022/01/06 01:53:25;;;;;;;27.65;4.95;;;0.60;99.90;;;;;;5093571;28;20020;-75
2022/01/06 01:55:51;;;;;;;20.33;3.13;;;0.60;99.90;;;;;;5093372;28;20016;-74
2022/01/06 01:58:19;;;;;;;15.43;3.03;;;0.60;99.90;;;;;;5093671;28;20089;-75
2022/01/06 02:00:45;;;;;;;23.85;4.07;;;0.60;99.90;;;;;;5093531;28;20031;-74
2022/01/06 02:03:10;;;;;;;27.75;4.22;;;0.60;99.90;;;;;;5093434;28;20024;-75
2022/01/06 02:05:36;;;;;;;27.63;3.17;;;0.60;99.90;;;;;;5093343;28;20584;-75
2022/01/06 02:08:02;;;;;;;21.90;3.15;;;0.60;99.90;;;;;;5093257;28;20025;-74
2022/01/06 02:10:29;;;;;;;31.00;3.10;;;0.60;99.90;;;;;;5081205;28;20458;-75
2022/01/06 02:12:56;;;;;;;27.08;2.92;;;0.60;99.90;;;;;;5072578;28;20038;-75
2022/01/06 02:15:23;;;;;;;27.52;2.88;;;0.60;99.90;;;;;;5066439;28;20017;-74
2022/01/06 02:17:49;;;;;;;25.98;2.88;;;0.70;99.90;;;;;;5072958;28;20025;-74
2022/01/06 02:20:17;;;;;;;25.10;2.88;;;0.70;99.90;;;;;;5072750;28;20447;-75
2022/01/06 02:22:44;;;;;;;33.83;3.28;;;0.70;99.90;;;;;;5072774;28;20031;-75
2022/01/06 02:25:15;;;;;;;24.88;2.38;;;0.60;99.90;;;;;;5072605;28;20025;-75
2022/01/06 02:27:41;;;;;;;26.83;2.63;;;0.60;99.90;;;;;;5072698;28;20056;-75
2022/01/06 02:30:08;;;;;;;20.80;3.15;;;0.50;99.90;;;;;;5072473;28;20021;-75
2022/01/06 02:32:34;;;;;;;21.60;2.17;;;0.50;99.90;;;;;;5072758;28;20040;-75
2022/01/06 02:35:18;;;;;;;22.23;2.65;;;0.40;99.90;;;;;;5072437;28;20017;-75
2022/01/06 02:37:44;;;;;;;23.38;3.53;;;0.40;99.90;;;;;;5074089;28;20483;-74
2022/01/06 02:40:14;;;;;;;24.90;2.90;;;0.40;99.90;;;;;;5092536;28;20102;-74
2022/01/06 02:42:50;;;;;;;27.42;2.83;;;0.40;99.90;;;;;;5092712;28;20463;-74
2022/01/06 02:45:16;;;;;;;21.70;3.30;;;0.30;99.90;;;;;;5092595;28;20147;-75
2022/01/06 02:47:43;;;;;;;26.50;3.90;;;0.30;99.90;;;;;;5092549;28;20463;-75
2022/01/06 02:50:10;;;;;;;17.58;3.13;;;0.30;99.90;;;;;;5092498;28;20034;-74
2022/01/06 02:52:35;;;;;;;21.60;3.25;;;0.30;99.90;;;;;;5092721;28;20024;-75
2022/01/06 02:55:03;;;;;;;28.35;3.45;;;0.30;99.90;;;;;;5092174;28;20058;-74
2022/01/06 02:57:28;;;;;;;17.02;3.63;;;0.30;99.90;;;;;;5092439;28;20138;-74
2022/01/06 02:59:54;;;;;;;20.20;2.63;;;0.30;99.90;;;;;;5092386;28;20059;-74
2022/01/06 03:02:19;;;;;;;31.58;3.20;;;0.30;99.90;;;;;;5092392;28;20040;-74
2022/01/06 03:04:45;;;;;;;17.40;3.08;;;0.30;99.90;;;;;;5092223;28;20032;-75
2022/01/06 03:07:11;;;;;;;21.80;2.50;;;0.20;99.90;;;;;;5092139;28;20028;-74
2022/01/06 03:09:42;;;;;;;17.85;2.95;;;0.20;99.90;;;;;;5092025;28;20066;-75
2022/01/06 03:12:55;;;;;;;23.00;3.63;;;0.20;99.90;;;;;;5092203;28;20103;-76
2022/01/06 03:14:56;;;;;;;19.92;2.50;;;0.20;99.90;;;;;;5080796;28;20043;-75
2022/01/06 03:17:21;;;;;;;16.60;2.53;;;0.20;99.90;;;;;;5092247;28;20027;-74
2022/01/06 03:19:47;;;;;;;19.48;2.38;;;0.10;99.90;;;;;;5092111;28;20055;-74
2022/01/06 03:22:13;;;;;;;18.05;2.90;;;0.10;99.90;;;;;;5092163;28;20492;-75
2022/01/06 03:24:39;;;;;;;19.63;3.05;;;0.10;99.90;;;;;;5091086;28;20016;-75
2022/01/06 03:27:05;;;;;;;15.80;3.10;;;0.10;99.90;;;;;;5092026;28;20389;-75
2022/01/06 03:29:31;;;;;;;24.48;2.95;;;0.10;99.90;;;;;;5091834;28;20027;-75
2022/01/06 03:31:58;;;;;;;18.90;2.50;;;0.00;99.90;;;;;;5091898;28;20028;-74
2022/01/06 03:34:25;;;;;;;20.63;2.45;;;0.10;99.90;;;;;;5091863;28;20012;-74
2022/01/06 03:36:50;;;;;;;23.17;2.78;;;0.00;99.90;;;;;;5091914;28;20090;-75
2022/01/06 03:39:16;;;;;;;22.65;2.90;;;0.10;99.90;;;;;;5091343;28;20051;-74
2022/01/06 03:41:41;;;;;;;20.60;3.17;;;0.00;99.90;;;;;;5091922;28;20470;-75
2022/01/06 03:44:07;;;;;;;19.55;2.45;;;0.10;99.90;;;;;;5073547;28;20412;-75
2022/01/06 03:46:33;;;;;;;21.80;2.92;;;0.00;99.90;;;;;;5091750;28;20035;-74
2022/01/06 03:48:58;;;;;;;25.45;2.38;;;0.00;99.90;;;;;;5091803;28;20048;-75
2022/01/06 03:51:24;;;;;;;23.15;3.97;;;0.00;99.90;;;;;;5091736;28;20505;-74
2022/01/06 03:53:51;;;;;;;30.73;4.15;;;0.00;99.90;;;;;;5091659;28;20016;-74
2022/01/06 03:56:17;;;;;;;17.27;2.60;;;-0.10;99.90;;;;;;5091575;28;20101;-75
2022/01/06 03:58:44;;;;;;;23.08;3.15;;;-0.10;99.90;;;;;;5091736;28;20543;-75
2022/01/06 04:01:10;;;;;;;15.60;2.40;;;-0.10;99.90;;;;;;5073395;28;20097;-75
2022/01/06 04:03:35;;;;;;;14.13;2.25;;;-0.10;99.90;;;;;;5091625;28;20511;-75
2022/01/06 04:06:01;;;;;;;13.80;2.20;;;-0.20;99.90;;;;;;5091557;28;20028;-75
2022/01/06 04:08:27;;;;;;;20.55;2.78;;;-0.20;99.90;;;;;;5091502;28;20020;-75
2022/01/06 04:10:52;;;;;;;17.48;2.47;;;-0.20;99.90;;;;;;5076091;28;20082;-75
2022/01/06 04:13:18;;;;;;;11.77;2.35;;;-0.20;99.90;;;;;;5071284;28;20098;-74
2022/01/06 04:15:45;;;;;;;21.40;2.65;;;-0.20;99.90;;;;;;5089403;28;20032;-75
2022/01/06 04:18:10;;;;;;;15.68;2.20;;;-0.20;99.90;;;;;;5091471;28;20030;-74
2022/01/06 04:20:36;;;;;;;11.57;1.75;;;-0.20;99.90;;;;;;5091477;28;20107;-75
2022/01/06 04:23:02;;;;;;;22.20;2.78;;;-0.20;99.90;;;;;;5091406;28;20113;-74
2022/01/06 04:25:27;;;;;;;19.15;2.13;;;-0.20;99.90;;;;;;5091104;28;20108;-75
2022/01/06 04:27:53;;;;;;;25.48;4.25;;;-0.30;99.90;;;;;;5091350;28;20086;-74
2022/01/06 04:30:19;;;;;;;20.38;2.85;;;-0.30;99.90;;;;;;5091362;28;20050;-75
2022/01/06 04:32:45;;;;;;;26.38;2.53;;;-0.30;99.90;;;;;;5091409;28;20027;-75
2022/01/06 04:35:11;;;;;;;22.90;2.92;;;-0.30;99.90;;;;;;5093038;28;20020;-75
2022/01/06 04:37:37;;;;;;;20.20;2.33;;;-0.20;99.90;;;;;;5095066;28;20201;-75
2022/01/06 04:40:05;;;;;;;26.23;2.80;;;-0.30;99.90;;;;;;5094777;28;20138;-75
2022/01/06 04:42:31;;;;;;;22.02;2.75;;;-0.30;99.90;;;;;;5094822;28;20039;-74
2022/01/06 04:44:56;;;;;;;14.27;2.47;;;-0.30;99.90;;;;;;5094725;28;20024;-75
2022/01/06 04:47:22;;;;;;;20.05;2.42;;;-0.30;99.90;;;;;;5094915;28;20514;-74
2022/01/06 04:49:47;;;;;;;17.85;2.40;;;-0.30;99.90;;;;;;5094713;28;20493;-75
2022/01/06 04:52:13;;;;;;;20.77;2.58;;;-0.30;99.90;;;;;;5094866;28;20052;-74
2022/01/06 04:54:40;;;;;;;13.45;2.22;;;-0.40;99.90;;;;;;5075878;28;20492;-75
2022/01/06 04:57:05;;;;;;;17.00;1.92;;;-0.40;99.90;;;;;;5094726;28;20028;-75
2022/01/06 04:59:31;;;;;;;15.23;2.03;;;-0.40;99.90;;;;;;5094654;28;20036;-75
2022/01/06 05:01:56;;;;;;;19.70;2.50;;;-0.40;99.90;;;;;;5094594;28;20036;-75
2022/01/06 05:04:22;;;;;;;17.80;1.92;;;-0.50;99.90;;;;;;5094517;28;20024;-74
2022/01/06 05:06:50;;;;;;;11.27;2.38;;;-0.40;99.90;;;;;;5094419;28;20032;-75
2022/01/06 05:09:16;;;;;;;18.95;2.17;;;-0.40;99.90;;;;;;5094315;28;20021;-75
2022/01/06 05:11:42;;;;;;;14.20;1.85;;;-0.40;99.90;;;;;;5094430;28;20645;-75
2022/01/06 05:14:07;;;;;;;24.20;3.90;;;-0.40;99.90;;;;;;5094174;28;20096;-75
2022/01/06 05:16:33;;;;;;;18.33;2.53;;;-0.50;99.90;;;;;;5094309;28;20103;-74
2022/01/06 05:18:59;;;;;;;17.17;2.10;;;-0.50;99.90;;;;;;5094142;28;20031;-74
2022/01/06 05:21:29;;;;;;;18.23;3.13;;;-0.50;99.90;;;;;;5094234;28;20039;-74
2022/01/06 05:23:54;;;;;;;12.93;2.20;;;-0.50;99.90;;;;;;5094061;28;20169;-75
2022/01/06 05:26:20;;;;;;;20.13;2.45;;;-0.50;99.90;;;;;;5093884;28;22251;-75
2022/01/06 05:28:46;;;;;;;18.05;2.35;;;-0.60;99.90;;;;;;5094035;28;20078;-75
2022/01/06 05:31:11;;;;;;;15.07;2.42;;;-0.60;99.90;;;;;;5094033;28;20097;-74
2022/01/06 05:33:37;;;;;;;17.63;2.20;;;-0.50;99.90;;;;;;5093910;28;20028;-74
2022/01/06 05:36:03;;;;;;;25.00;2.85;;;-0.60;99.90;;;;;;5094010;28;20173;-74
2022/01/06 05:38:28;;;;;;;19.67;3.03;;;-0.60;99.90;;;;;;5093299;28;20051;-74
2022/01/06 05:40:54;;;;;;;18.17;2.47;;;-0.60;99.90;;;;;;5093821;28;20784;-75
2022/01/06 05:43:20;;;;;;;26.58;2.67;;;-0.60;99.90;;;;;;5093634;28;20436;-75
2022/01/06 05:45:47;;;;;;;18.45;2.22;;;-0.60;99.90;;;;;;5093385;28;20048;-74
2022/01/06 05:48:13;;;;;;;21.15;3.00;;;-0.60;99.90;;;;;;5093228;28;20032;-74
2022/01/06 05:50:38;;;;;;;26.42;2.60;;;-0.50;99.90;;;;;;5093569;28;20039;-75
2022/01/06 05:53:04;;;;;;;15.98;2.60;;;-0.50;99.90;;;;;;5093459;28;20020;-75
2022/01/06 05:55:30;;;;;;;20.50;2.28;;;-0.60;99.90;;;;;;5093555;28;20016;-75
2022/01/06 05:57:55;;;;;;;23.10;2.58;;;-0.70;99.90;;;;;;5093558;28;20422;-75
2022/01/06 06:00:21;;;;;;;18.63;2.30;;;-0.60;99.90;;;;;;5075159;28;20040;-76
2022/01/06 06:02:46;;;;;;;17.65;2.65;;;-0.70;99.90;;;;;;5093458;28;20024;-75
2022/01/06 06:05:12;;;;;;;23.50;2.83;;;-0.70;99.90;;;;;;5093408;28;20326;-75
2022/01/06 06:07:37;;;;;;;18.92;2.95;;;-0.70;99.90;;;;;;5093313;28;20028;-75
2022/01/06 06:10:03;;;;;;;17.83;3.13;;;-0.70;99.90;;;;;;5093117;28;20026;-74
2022/01/06 06:12:29;;;;;;;20.75;2.15;;;-0.80;99.90;;;;;;5093319;28;20077;-75
2022/01/06 06:14:55;;;;;;;16.25;2.20;;;-0.80;99.90;;;;;;5093164;28;20119;-75
2022/01/06 06:17:20;;;;;;;28.52;2.97;;;-0.80;99.90;;;;;;5093282;28;20032;-75
2022/01/06 06:19:46;;;;;;;17.52;2.22;;;-0.80;99.90;;;;;;5092974;28;20099;-75
2022/01/06 06:22:11;;;;;;;29.35;3.15;;;-0.80;99.90;;;;;;5093197;28;20034;-74
2022/01/06 06:24:38;;;;;;;28.00;2.95;;;-0.80;99.90;;;;;;5092909;28;20619;-74
2022/01/06 06:27:05;;;;;;;22.27;2.72;;;-0.80;99.90;;;;;;5092991;28;20032;-75
2022/01/06 06:29:30;;;;;;;21.30;2.85;;;-0.80;99.90;;;;;;5092956;28;20066;-74
2022/01/06 06:31:56;;;;;;;18.35;3.15;;;-0.80;99.90;;;;;;5093073;28;20028;-74
2022/01/06 06:34:22;;;;;;;18.95;2.55;;;-0.80;99.90;;;;;;5092749;28;20020;-75
2022/01/06 06:36:48;;;;;;;20.90;2.47;;;-0.80;99.90;;;;;;5092972;28;20092;-74
2022/01/06 06:39:13;;;;;;;13.98;2.55;;;-0.80;99.90;;;;;;5092139;28;20127;-74
2022/01/06 06:41:39;;;;;;;20.83;2.33;;;-0.90;99.90;;;;;;5092775;28;20062;-75
2022/01/06 06:44:05;;;;;;;22.75;2.80;;;-0.90;99.90;;;;;;5092623;28;20024;-75
2022/01/06 06:46:30;;;;;;;16.20;2.13;;;-0.90;99.90;;;;;;5092611;28;20031;-75
2022/01/06 06:48:56;;;;;;;19.42;2.28;;;-0.90;99.90;;;;;;5092585;28;20028;-75
2022/01/06 06:51:22;;;;;;;19.45;2.70;;;-0.90;99.90;;;;;;5102308;28;20032;-75
2022/01/06 06:53:47;;;;;;;27.48;3.30;;;-0.90;99.90;;;;;;5101456;28;20077;-75
2022/01/06 06:56:13;;;;;;;21.35;3.00;;;-0.70;99.90;;;;;;5103215;28;20035;-75
2022/01/06 06:58:38;;;;;;;17.10;2.85;;;-0.70;99.90;;;;;;5100395;28;20035;-74
2022/01/06 07:01:04;;;;;;;28.67;5.75;;;-0.70;99.90;;;;;;5100495;28;20030;-74
2022/01/06 07:03:29;;;;;;;36.00;8.20;;;-0.80;99.90;;;;;;5103000;28;20126;-75
2022/01/06 07:05:55;;;;;;;26.48;8.02;;;-0.80;99.90;;;;;;5079760;28;20024;-75
2022/01/06 07:08:21;;;;;;;32.70;6.40;;;-0.80;99.90;;;;;;5102144;28;20055;-74
2022/01/06 07:10:46;;;;;;;24.67;5.15;;;-0.80;99.90;;;;;;5102433;28;20036;-74
2022/01/06 07:13:16;;;;;;;36.10;5.78;;;-0.80;99.90;;;;;;5100879;28;20061;-75
2022/01/06 07:15:43;;;;;;;28.58;4.22;;;-0.90;99.90;;;;;;5102069;28;20038;-75
2022/01/06 07:18:08;;;;;;;19.83;4.55;;;-0.90;99.90;;;;;;5102754;28;20128;-75
2022/01/06 07:20:34;;;;;;;20.88;3.78;;;-0.90;99.90;;;;;;5100826;28;20099;-75
2022/01/06 07:22:59;;;;;;;22.30;4.05;;;-0.90;99.90;;;;;;5102288;28;20024;-75
2022/01/06 07:25:25;;;;;;;24.27;4.30;;;-0.90;99.90;;;;;;5102149;28;20453;-75
2022/01/06 07:27:51;;;;;;;19.50;3.25;;;-0.90;99.90;;;;;;5100502;28;20034;-76
2022/01/06 07:30:16;;;;;;;21.83;3.35;;;-0.90;99.90;;;;;;5100843;28;20037;-76
2022/01/06 07:32:43;;;;;;;21.48;3.50;;;-0.90;99.90;;;;;;5103729;28;20016;-75
2022/01/06 07:35:08;;;;;;;19.98;2.80;;;-1.00;99.90;;;;;;5100955;28;20030;-75
2022/01/06 07:37:34;;;;;;;23.83;3.92;;;-1.00;99.90;;;;;;5099954;28;20028;-75
2022/01/06 07:40:00;;;;;;;18.17;4.13;;;-1.00;99.90;;;;;;5097944;28;20700;-76
2022/01/06 07:42:25;;;;;;;27.35;3.83;;;-1.00;99.90;;;;;;5101229;28;20100;-76
2022/01/06 07:44:51;;;;;;;17.92;4.10;;;-1.00;99.90;;;;;;5102449;28;20077;-75
2022/01/06 07:47:17;;;;;;;24.83;4.65;;;-1.00;99.90;;;;;;5100028;28;20039;-75
2022/01/06 07:49:42;;;;;;;32.97;5.35;;;-1.00;99.90;;;;;;5077794;28;20021;-75
2022/01/06 07:52:08;;;;;;;22.45;4.50;;;-1.00;99.90;;;;;;5083022;28;20024;-75
2022/01/06 07:54:34;;;;;;;30.60;5.15;;;-1.00;99.90;;;;;;5082696;28;20097;-76
2022/01/06 07:56:59;;;;;;;20.48;4.18;;;-1.00;99.90;;;;;;5085659;28;20162;-76
2022/01/06 07:59:25;;;;;;;29.55;4.60;;;-1.00;99.90;;;;;;5084866;28;20039;-76
2022/01/06 08:01:50;;;;;;;22.58;4.53;;;-0.90;99.90;;;;;;5088046;28;20565;-76
2022/01/06 08:04:16;;;;;;;32.65;3.92;;;-0.90;99.90;;;;;;5080564;28;20028;-76
2022/01/06 08:06:41;;;;;;;22.70;4.20;;;-0.90;99.90;;;;;;5083182;28;20103;-75
2022/01/06 08:09:07;;;;;;;22.35;4.28;;;-1.00;99.90;;;;;;5079855;28;20501;-75
2022/01/06 08:11:32;;;;;;;29.02;4.60;;;-0.90;99.90;;;;;;5094531;28;20050;-76
2022/01/06 08:13:58;;;;;;;23.45;3.30;;;-0.90;99.90;;;;;;5104566;28;20081;-75
2022/01/06 08:16:24;;;;;;;24.63;3.75;;;-0.90;99.90;;;;;;5103908;28;20023;-76
2022/01/06 08:18:49;;;;;;;30.02;6.18;;;-0.90;99.90;;;;;;5106096;28;20023;-75
2022/01/06 08:21:15;;;;;;;32.33;5.38;;;-0.80;99.90;;;;;;5104031;28;20032;-76
2022/01/06 08:23:40;;;;;;;27.17;4.68;;;-0.80;99.90;;;;;;5105515;28;20123;-76
2022/01/06 08:26:07;;;;;;;33.20;5.70;;;-0.80;99.90;;;;;;5105499;28;20039;-76
2022/01/06 08:28:33;;;;;;;24.40;5.75;;;-0.70;99.90;;;;;;5103903;28;20565;-75
2022/01/06 08:30:59;;;;;;;34.80;5.75;;;-0.70;99.90;;;;;;5105770;28;20024;-75
2022/01/06 08:33:24;;;;;;;34.45;5.80;;;-0.70;99.90;;;;;;5103404;28;20515;-75
2022/01/06 08:35:50;;;;;;;28.15;4.78;;;-0.70;99.90;;;;;;5105800;28;20027;-75
2022/01/06 08:38:16;;;;;;;26.67;5.60;;;-0.70;99.90;;;;;;5103050;28;20107;-76
2022/01/06 08:40:41;;;;;;;23.67;6.22;;;-0.70;99.90;;;;;;5104295;28;20044;-75
2022/01/06 08:43:07;;;;;;;24.25;7.43;;;-0.60;99.90;;;;;;5104287;28;20068;-76
2022/01/06 08:45:33;;;;;;;31.08;7.70;;;-0.50;99.90;;;;;;5105862;28;20038;-76
2022/01/06 08:47:58;;;;;;;32.60;7.95;;;-0.50;99.90;;;;;;5103937;28;20032;-75
2022/01/06 08:50:24;;;;;;;29.45;7.75;;;-0.50;99.90;;;;;;5104425;28;20035;-76
2022/01/06 08:52:51;;;;;;;35.05;8.82;;;-0.40;99.90;;;;;;5105532;28;20024;-76
2022/01/06 08:55:16;;;;;;;20.23;7.40;;;-0.30;99.90;;;;;;5095879;28;20024;-76
2022/01/06 08:57:42;;;;;;;39.38;10.27;;;-0.40;99.90;;;;;;5102484;28;20027;-76
2022/01/06 09:00:10;;;;;;;36.28;9.25;;;-0.30;99.90;;;;;;5111682;28;20023;-75
2022/01/06 09:02:36;;;;;;;46.45;10.82;;;-0.20;99.90;;;;;;5107709;28;20552;-76
2022/01/06 09:05:05;;;;;;;40.17;11.38;;;-0.20;99.90;;;;;;5104104;28;20023;-76
2022/01/06 09:07:33;;;;;;;74.10;19.80;;;0.00;99.90;;;;;;5104255;28;20020;-76
2022/01/06 09:09:58;;;;;;;60.42;19.65;;;0.00;99.90;;;;;;5105258;28;20016;-76
2022/01/06 09:12:24;;;;;;;60.05;15.68;;;0.10;99.90;;;;;;5103749;28;20024;-76
2022/01/06 09:14:50;;;;;;;37.17;9.20;;;0.20;99.90;;;;;;5097273;28;20026;-76
2022/01/06 09:17:15;;;;;;;43.88;9.57;;;0.20;99.90;;;;;;5094405;28;20062;-76
2022/01/06 09:19:41;;;;;;;27.92;7.80;;;0.30;99.90;;;;;;5094071;28;20066;-76
2022/01/06 09:22:07;;;;;;;38.40;8.98;;;0.30;99.90;;;;;;5095675;28;20072;-76
2022/01/06 09:24:33;;;;;;;32.13;8.73;;;0.30;99.90;;;;;;5112115;28;20080;-76
2022/01/06 09:26:58;;;;;;;40.50;8.93;;;0.40;99.90;;;;;;5114406;28;20405;-76
2022/01/06 09:29:24;;;;;;;39.30;9.68;;;0.50;99.90;;;;;;5095974;28;20199;-76
2022/01/06 09:31:50;;;;;;;40.92;10.43;;;0.60;99.90;;;;;;5114448;28;20031;-76
2022/01/06 09:34:15;;;;;;;55.35;13.63;;;0.60;99.90;;;;;;5114345;28;20425;-75
2022/01/06 09:36:41;;;;;;;51.70;13.63;;;0.70;99.90;;;;;;5098900;28;20085;-75
2022/01/06 09:39:10;;;;;;;49.22;15.65;;;0.70;99.90;;;;;;5093421;28;20104;-75
2022/01/06 09:41:36;;;;;;;52.72;19.65;;;0.70;99.90;;;;;;5075714;28;20394;-76
2022/01/06 09:44:03;;;;;;;50.92;16.80;;;0.90;99.90;;;;;;5107788;28;20032;-74
2022/01/06 09:46:29;;;;;;;45.97;16.73;;;1.00;99.90;;;;;;5108416;28;20078;-76
2022/01/06 09:48:57;;;;;;;47.67;14.45;;;1.00;99.90;;;;;;5101956;28;20012;-75
2022/01/06 09:51:23;;;;;;;28.30;11.85;;;1.00;99.90;;;;;;5102287;28;20027;-76
2022/01/06 09:53:53;;;;;;;41.30;11.38;;;1.10;99.90;;;;;;5104212;28;20027;-76
2022/01/06 09:56:20;;;;;;;50.72;11.77;;;1.20;99.90;;;;;;5101818;28;20027;-75
2022/01/06 09:58:46;;;;;;;40.08;10.90;;;1.30;99.90;;;;;;5104575;28;20023;-74
2022/01/06 10:01:12;;;;;;;38.60;8.98;;;1.40;99.90;;;;;;5102814;28;20016;-76
2022/01/06 10:03:50;;;;;;;40.13;9.18;;;1.40;99.90;;;;;;5102768;28;20366;-75
2022/01/06 10:06:34;;;;;;;40.50;9.43;;;1.40;99.90;;;;;;5101369;28;20032;-74
2022/01/06 10:09:03;;;;;;;27.92;6.85;;;;;;;;;;5073020;28;20027;-75
2022/01/06 10:11:31;;;;;;;26.90;8.15;;;;;;;;;;5094665;28;20016;-76
2022/01/06 10:13:59;;;;;;;43.63;9.77;;;;;;;;;;5087124;28;20036;-79
2022/01/06 10:16:26;;;;;;;23.70;8.10;;;;;;;;;;5094231;28;20028;-79
2022/01/06 10:19:04;;;;;;;30.92;7.97;;;;;;;;;;5094127;28;20026;-79
2022/01/06 10:21:31;;;;;;;30.50;7.85;;;;;;;;;;5094016;28;20020;-79
2022/01/06 10:24:08;;;;;;;27.08;8.10;;;;;;;;;;5093889;28;20323;-79
2022/01/06 10:26:35;;;;;;;29.58;6.82;;;;;;;;;;5094046;28;20415;-79
2022/01/06 10:29:01;;;;;;;19.17;5.65;;;;;;;;;;5093819;28;20016;-79
2022/01/06 10:31:28;;;;;;;16.88;5.57;;;;;;;;;;5094063;28;20035;-78
2022/01/06 10:33:55;;;;;;;27.42;6.07;;;;;;;;;;5093582;28;20020;-78
2022/01/06 10:36:27;;;;;;;17.85;4.95;;;;;;;;;;5093725;28;20027;-78
2022/01/06 10:38:54;;;;;;;31.50;5.53;;;;;;;;;;5081787;28;20036;-77
2022/01/06 10:41:20;;;;;;;25.67;4.72;;;;;;;;;;5088784;28;20176;-77
2022/01/06 10:43:50;;;;;;;19.05;4.80;;;;;;;;;;5100950;28;20020;-77
2022/01/06 10:46:16;;;;;;;19.65;5.30;;;;;;;;;;5101975;28;20016;-77
2022/01/06 10:48:45;;;;;;;16.73;5.05;;;;;;;;;;5100171;28;20481;-77
2022/01/06 10:51:11;;;;;;;27.25;7.63;;;;;;;;;;5103926;28;20462;-77
2022/01/06 10:53:48;;;;;;;19.52;6.45;;;;;;;;;;5107068;28;20020;-77
2022/01/06 10:56:18;;;;;;;28.05;7.32;;;;;;;;;;5103164;28;20372;-77
2022/01/06 10:58:45;;;;;;;23.85;6.05;;;;;;;;;;5107110;28;20583;-77
2022/01/06 11:01:16;;;;;;;22.65;5.97;;;;;;;;;;5105496;28;20103;-77
2022/01/06 11:03:42;;;;;;;21.60;5.07;;;;;;;;;;5102156;28;20073;-77
2022/01/06 11:06:10;;;;;;;24.42;4.95;;;;;;;;;;5085645;28;20019;-77
2022/01/06 11:08:40;;;;;;;23.55;3.78;;;;;;;;;;5101369;28;20032;-77
2022/01/06 11:13:38;;;;;;;19.98;2.88;;;;;;;;;;5102035;28;20028;-77
2022/01/06 11:16:04;;;;;;;18.70;2.58;;;;;;;;;;5085695;28;20019;-77
2022/01/06 11:18:31;;;;;;;15.02;2.78;;;;;;;;;;5083540;28;20024;-77
2022/01/06 11:21:06;;;;;;;16.42;3.17;;;;;;;;;;5106903;28;20080;-77
2022/01/06 11:23:32;;;;;;;13.80;3.00;;;;;;;;;;5112698;28;20106;-77
2022/01/06 11:26:06;;;;;;;15.45;2.47;;;;;;;;;;5112617;28;20030;-77
2022/01/06 11:28:33;;;;;;;17.40;2.13;;;;;;;;;;5112494;28;20038;-78
2022/01/06 11:31:12;;;;;;;13.82;2.35;;;;;;;;;;5112901;28;20023;-78
2022/01/06 11:33:42;;;;;;;15.07;2.17;;;;;;;;;;5081357;28;20470;-79
2022/01/06 11:36:19;;;;;;;9.27;1.90;;;;;;;;;;5074687;28;20028;-79
2022/01/06 11:38:50;;;;;;;21.27;2.60;;;;;;;;;;5088882;28;20482;-78
2022/01/06 11:41:16;;;;;;;12.07;2.10;;;;;;;;;;5057647;28;20055;-79
2022/01/06 11:43:44;;;;;;;23.90;2.65;;;;;;;;;;5093394;28;20374;-79
2022/01/06 11:46:11;;;;;;;12.15;2.38;;;;;;;;;;5093380;28;20112;-79
2022/01/06 11:48:52;;;;;;;15.77;2.38;;;;;;;;;;5081418;28;20123;-81
2022/01/06 11:51:31;;;;;;;16.27;2.17;;;;;;;;;;5099359;28;20020;-78
2022/01/06 11:53:58;;;;;;;13.60;2.45;;;;;;;;;;5106347;28;20028;-80
2022/01/06 11:56:25;;;;;;;17.80;2.33;;;;;;;;;;5106739;28;20454;-80
2022/01/06 11:58:58;;;;;;;9.38;2.08;;;;;;;;;;5112405;28;20015;-80
2022/01/06 12:01:24;;;;;;;22.02;2.55;;;;;;;;;;5100978;28;20095;-81
2022/01/06 12:03:51;;;;;;;13.40;3.08;;;;;;;;;;5097967;28;20351;-81
2022/01/06 12:06:28;;;;;;;12.88;3.22;;;;;;;;;;5108276;28;20027;-78
2022/01/06 12:08:54;;;;;;;14.15;2.60;;;;;;;;;;5072847;28;20491;-81
2022/01/06 12:11:24;;;;;;;19.55;4.13;;;;;;;;;;5091761;28;20025;-80
2022/01/06 12:13:52;;;;;;;11.25;1.95;;;;;;;;;;5096835;28;20113;-81
2022/01/06 12:16:25;;;;;;;17.60;2.50;;;;;;;;;;5112649;28;20024;-80
2022/01/06 12:18:52;;;;;;;15.32;2.72;;;;;;;;;;5091509;28;20031;-81
2022/01/06 12:21:18;;;;;;;14.82;2.38;;;;;;;;;;5107157;28;20118;-81
2022/01/06 12:23:45;;;;;;;16.15;2.13;;;;;;;;;;5098432;28;20115;-80
2022/01/06 12:26:12;;;;;;;9.23;2.85;;;;;;;;;;5083629;28;20020;-81
2022/01/06 12:28:46;;;;;;;19.25;2.88;;;;;;;;;;5103986;28;20024;-81
2022/01/06 12:31:20;;;;;;;13.68;2.42;;;;;;;;;;5094002;28;20461;-81
2022/01/06 12:33:48;;;;;;;14.93;2.28;;;;;;;;;;5109356;28;20031;-81
2022/01/06 12:36:17;;;;;;;17.75;2.35;;;;;;;;;;5100610;28;20020;-81
2022/01/06 12:38:43;;;;;;;19.30;3.05;;;;;;;;;;5091612;28;20035;-80
2022/01/06 12:41:11;;;;;;;9.77;2.25;;;;;;;;;;5097572;28;20059;-77
2022/01/06 12:43:38;;;;;;;15.23;3.00;;;;;;;;;;5091376;28;20126;-77
2022/01/06 12:46:06;;;;;;;13.13;2.15;;;;;;;;;;5073490;28;20028;-79
2022/01/06 12:48:33;;;;;;;8.15;2.33;;;;;;;;;;5091742;28;20059;-78
2022/01/06 12:50:59;;;;;;;18.08;2.35;;;;;;;;;;5091645;28;20127;-80
2022/01/06 12:53:26;;;;;;;14.65;2.80;;;;;;;;;;5091574;28;20043;-78
2022/01/06 12:55:53;;;;;;;30.23;3.13;;;;;;;;;;5093025;28;20481;-78
2022/01/06 12:58:45;;;;;;;21.02;3.85;;;;;;;;;;5087799;28;20126;-78
2022/01/06 13:01:12;;;;;;;24.45;2.90;;;;;;;;;;5085448;28;20107;-78
2022/01/06 13:03:40;;;;;;;15.55;2.70;;;;;;;;;;5103599;28;20011;-78
2022/01/06 13:06:07;;;;;;;18.48;4.18;;;;;;;;;;5103754;28;20024;-78
2022/01/06 13:08:43;;;;;;;14.43;3.15;;;;;;;;;;5102703;28;20020;-78
2022/01/06 13:11:09;;;;;;;16.00;3.00;;;;;;;;;;5094331;28;20020;-79
2022/01/06 13:13:44;;;;;;;16.80;2.58;;;;;;;;;;5089386;28;20031;-78
2022/01/06 13:16:14;;;;;;;14.68;2.53;;;;;;;;;;5098942;28;20042;-78